»·PEaware :: N75232 KBUR-KLAS

N75232 :: KBUR-KLAS

FLIGHT INFORMATION

Flight Status: Arrived
Operator: Privately registered:
United States
More flights under this callsign
Pilot: Daniel B. (28719)
Aircraft: CESSNA 172 SKYHAWK
(C172)
More flights by this aircraft type
Origin: KBUR Bob Hope-Burbank
United States
Destination: KLAS McCarran Intl
United States
More flights between these airports :: More routes between these airports
Route: VNY3 DAG CRESO4
File this flight plan on PilotEdge
Remarks:
Altitude:
(Current/Filed)
11,000ft
Speed:
(Current/Filed)
115kts
Departed: 18-Jul-20 07:50 AM
Arrived: 18-Jul-20 10:09 AM
Distance/Time
Traveled:
194nm/2:18
Distance/Time
To Go:
Arrived

Flight Plot

Page will automatically refresh every two minutes.

Flight plan parsing failed; only flown route is shown


Map Options




Map Legend


Flown Route
Filed Route
Departure Airport
Arrival Airport
Navaid (VOR, NDB)
Fix

Horizontal Profiles

Position Reports

Time Latitude Longitude Heading Altitude Ground
Speed
18-Jul-20 07:09 34.200215 -118.358844 258 721ft 0kts
18-Jul-20 07:10 34.200215 -118.358844 258 721ft 0kts
18-Jul-20 07:11 34.200215 -118.358844 258 721ft 0kts
18-Jul-20 07:12 34.200215 -118.358844 258 721ft 0kts
18-Jul-20 07:13 34.200215 -118.358844 258 721ft 0kts
18-Jul-20 07:14 34.200215 -118.358844 258 721ft 0kts
18-Jul-20 07:15 34.200215 -118.358844 258 721ft 0kts
18-Jul-20 07:16 34.200215 -118.358845 258 721ft 0kts
18-Jul-20 07:17 34.200215 -118.358845 258 721ft 0kts
18-Jul-20 07:18 34.200215 -118.358845 258 721ft 0kts
18-Jul-20 07:19 34.200215 -118.358845 258 721ft 0kts
18-Jul-20 07:20 34.200215 -118.358845 258 721ft 0kts
18-Jul-20 07:21 34.200215 -118.358845 258 721ft 0kts
18-Jul-20 07:22 34.200215 -118.358845 258 721ft 0kts
18-Jul-20 07:22 34.200215 -118.358845 258 721ft 0kts
18-Jul-20 07:24 34.200215 -118.358845 258 721ft 0kts
18-Jul-20 07:25 34.200215 -118.358845 258 721ft 0kts
18-Jul-20 07:25 34.200215 -118.358845 258 721ft 0kts
18-Jul-20 07:27 34.200215 -118.358845 258 721ft 0kts
18-Jul-20 07:27 34.200215 -118.358845 258 721ft 0kts
18-Jul-20 07:28 34.200215 -118.358845 258 721ft 0kts
18-Jul-20 07:30 34.200215 -118.358845 258 721ft 0kts
18-Jul-20 07:30 34.200215 -118.358845 258 721ft 0kts
18-Jul-20 07:31 34.200215 -118.358845 258 721ft 0kts
18-Jul-20 07:32 34.200215 -118.358845 258 721ft 0kts
18-Jul-20 07:33 34.200215 -118.358845 258 721ft 0kts
18-Jul-20 07:34 34.200215 -118.358845 258 721ft 0kts
18-Jul-20 07:35 34.199646 -118.358267 51 717ft 5kts
18-Jul-20 07:36 34.201545 -118.358642 347 726ft 8kts
18-Jul-20 07:37 34.203955 -118.359309 347 735ft 13kts
18-Jul-20 07:38 34.206941 -118.360132 346 746ft 9kts
18-Jul-20 07:39 34.209261 -118.360771 348 758ft 8kts
18-Jul-20 07:40 34.211813 -118.361428 17 768ft 6kts
18-Jul-20 07:41 34.211916 -118.361365 34 768ft 0kts
18-Jul-20 07:42 34.211916 -118.361365 34 768ft 0kts
18-Jul-20 07:43 34.211916 -118.361365 34 768ft 0kts
18-Jul-20 07:44 34.211916 -118.361365 34 768ft 0kts
18-Jul-20 07:45 34.211916 -118.361365 34 768ft 0kts
18-Jul-20 07:46 34.211916 -118.361365 34 768ft 0kts
18-Jul-20 07:47 34.211916 -118.361365 34 768ft 0kts
18-Jul-20 07:48 34.211965 -118.360398 160 767ft 14kts
18-Jul-20 07:49 34.200540 -118.364011 231 1175ft 76kts
18-Jul-20 07:50 34.190527 -118.379106 229 1794ft 79kts
18-Jul-20 07:51 34.179958 -118.394428 227 2412ft 80kts
18-Jul-20 07:52 34.168669 -118.411154 229 3025ft 83kts
18-Jul-20 07:53 34.156236 -118.430214 226 3665ft 84kts
18-Jul-20 07:54 34.143483 -118.450690 255 4290ft 88kts
18-Jul-20 07:55 34.155731 -118.460917 359 4843ft 79kts
18-Jul-20 07:56 34.172036 -118.462350 358 5362ft 82kts
18-Jul-20 07:57 34.188864 -118.462124 9 5908ft 80kts
18-Jul-20 07:58 34.207208 -118.461934 4 6435ft 84kts
18-Jul-20 07:59 34.228008 -118.461396 12 7016ft 84kts
18-Jul-20 08:00 34.249005 -118.455983 46 7598ft 82kts
18-Jul-20 08:01 34.266399 -118.439792 32 8185ft 82kts
18-Jul-20 08:02 34.290232 -118.425668 31 8777ft 88kts
18-Jul-20 08:03 34.316990 -118.409476 27 9423ft 90kts
18-Jul-20 08:04 34.345189 -118.393818 28 10051ft 89kts
18-Jul-20 08:05 34.372022 -118.378225 29 10689ft 80kts
18-Jul-20 08:06 34.399498 -118.361643 22 11038ft 106kts
18-Jul-20 08:07 34.439989 -118.338232 24 11048ft 126kts
18-Jul-20 08:08 34.476499 -118.302252 58 11019ft 123kts
18-Jul-20 08:09 34.506665 -118.255574 54 11022ft 122kts
18-Jul-20 08:10 34.535997 -118.209250 56 10989ft 123kts
18-Jul-20 08:11 34.562632 -118.165390 56 10994ft 123kts
18-Jul-20 08:12 34.589292 -118.122420 55 10986ft 123kts
18-Jul-20 08:13 34.618784 -118.077874 53 10986ft 124kts
18-Jul-20 08:14 34.629139 -118.021986 86 10993ft 122kts
18-Jul-20 08:15 34.637825 -117.967652 83 11026ft 117kts
18-Jul-20 08:16 34.642626 -117.928316 84 11028ft 118kts
18-Jul-20 08:17 34.646426 -117.888892 85 11036ft 117kts
18-Jul-20 08:18 34.651543 -117.849488 82 11045ft 118kts
18-Jul-20 08:19 34.656679 -117.809726 85 10977ft 123kts
18-Jul-20 08:20 34.660192 -117.769209 80 10952ft 122kts
18-Jul-20 08:21 34.668892 -117.729140 73 10942ft 120kts
18-Jul-20 08:22 34.678539 -117.691702 74 11080ft 115kts
18-Jul-20 08:23 34.687831 -117.653447 71 11068ft 120kts
18-Jul-20 08:24 34.698808 -117.615307 72 11098ft 118kts
18-Jul-20 08:25 34.708790 -117.576789 73 11070ft 122kts
18-Jul-20 08:26 34.718711 -117.536911 75 11028ft 121kts
18-Jul-20 08:27 34.728190 -117.497867 71 11031ft 121kts
18-Jul-20 08:28 34.738215 -117.458874 75 11025ft 120kts
18-Jul-20 08:29 34.750182 -117.420832 72 11052ft 118kts
18-Jul-20 08:30 34.758783 -117.382333 78 11085ft 119kts
18-Jul-20 08:31 34.767908 -117.343138 75 11045ft 122kts
18-Jul-20 08:32 34.777641 -117.303577 75 11011ft 122kts
18-Jul-20 08:33 34.786787 -117.263630 70 10977ft 121kts
18-Jul-20 08:34 34.798217 -117.226294 71 11075ft 117kts
18-Jul-20 08:35 34.808156 -117.187513 74 11029ft 122kts
18-Jul-20 08:36 34.817435 -117.147608 75 10993ft 122kts
18-Jul-20 08:37 34.825593 -117.107459 72 10990ft 121kts
18-Jul-20 08:38 34.836218 -117.068902 76 11018ft 120kts
18-Jul-20 08:39 34.846522 -117.030312 79 11035ft 119kts
18-Jul-20 08:40 34.856347 -116.991339 76 11033ft 120kts
18-Jul-20 08:41 34.867234 -116.952668 73 11036ft 121kts
18-Jul-20 08:42 34.876291 -116.912794 79 10988ft 122kts
18-Jul-20 08:43 34.886182 -116.873219 75 10950ft 122kts
18-Jul-20 08:44 34.896070 -116.833427 79 10909ft 122kts
18-Jul-20 08:45 34.905186 -116.795283 72 11026ft 116kts
18-Jul-20 08:46 34.915653 -116.757669 76 11057ft 118kts
18-Jul-20 08:47 34.925138 -116.718538 75 11030ft 123kts
18-Jul-20 08:48 34.934972 -116.678844 77 11018ft 122kts
18-Jul-20 08:49 34.943985 -116.638917 77 11023ft 121kts
18-Jul-20 08:50 34.953795 -116.599483 76 11051ft 120kts
18-Jul-20 08:51 34.966721 -116.561507 64 11066ft 122kts
18-Jul-20 08:52 34.982352 -116.524047 64 11076ft 121kts
18-Jul-20 08:53 34.999222 -116.487598 60 11056ft 124kts
18-Jul-20 08:54 35.015438 -116.450230 63 11045ft 124kts
18-Jul-20 08:55 35.031331 -116.412798 62 11051ft 124kts
18-Jul-20 08:56 35.047550 -116.375511 60 11057ft 123kts
18-Jul-20 08:57 35.064117 -116.338828 61 11053ft 123kts
18-Jul-20 08:58 35.081264 -116.301915 62 11023ft 126kts
18-Jul-20 08:59 35.097035 -116.264041 64 11010ft 124kts
18-Jul-20 09:00 35.113404 -116.226632 63 11014ft 122kts
18-Jul-20 09:01 35.130390 -116.190497 64 11026ft 123kts
18-Jul-20 09:02 35.146496 -116.153816 64 11044ft 122kts
18-Jul-20 09:03 35.161983 -116.116645 62 11060ft 122kts
18-Jul-20 09:04 35.178369 -116.078837 62 10876ft 134kts
18-Jul-20 09:06 35.198236 -116.039928 54 10390ft 138kts
18-Jul-20 09:07 35.215669 -116.000296 60 10148ft 123kts
18-Jul-20 09:08 35.231426 -115.963650 64 10123ft 122kts
18-Jul-20 09:09 35.246792 -115.926983 60 10114ft 123kts
18-Jul-20 09:10 35.262877 -115.890551 62 10118ft 122kts
18-Jul-20 09:11 35.278257 -115.853397 64 10149ft 121kts
18-Jul-20 09:12 35.294620 -115.816954 62 10162ft 123kts
18-Jul-20 09:13 35.312429 -115.780785 52 10096ft 128kts
18-Jul-20 09:14 35.335490 -115.748353 49 10104ft 125kts
18-Jul-20 09:15 35.358396 -115.716274 49 10056ft 127kts
18-Jul-20 09:16 35.383078 -115.685451 44 10071ft 123kts
18-Jul-20 09:17 35.406992 -115.654577 47 10059ft 125kts
18-Jul-20 09:18 35.430336 -115.622801 46 10064ft 124kts
18-Jul-20 09:19 35.453589 -115.591451 45 10074ft 124kts
18-Jul-20 09:20 35.476815 -115.559730 48 10048ft 127kts
18-Jul-20 09:21 35.500547 -115.527826 47 10042ft 126kts
18-Jul-20 09:21 35.519956 -115.501241 47 10050ft 125kts
18-Jul-20 09:23 35.547637 -115.464439 45 10035ft 126kts
18-Jul-20 09:24 35.570880 -115.432844 45 10057ft 124kts
18-Jul-20 09:24 35.590393 -115.406757 48 10089ft 123kts
18-Jul-20 09:26 35.619051 -115.371384 47 10065ft 125kts
18-Jul-20 09:26 35.638061 -115.344513 44 9828ft 123kts
18-Jul-20 09:27 35.661666 -115.315073 47 9243ft 120kts
18-Jul-20 09:28 35.683965 -115.284609 49 8605ft 119kts
18-Jul-20 09:29 35.706060 -115.254281 47 7982ft 118kts
18-Jul-20 09:30 35.728067 -115.224373 48 7378ft 118kts
18-Jul-20 09:31 35.749236 -115.194541 49 7060ft 116kts
18-Jul-20 09:32 35.773281 -115.164238 48 7060ft 128kts
18-Jul-20 09:33 35.796706 -115.131200 49 7021ft 127kts
18-Jul-20 09:34 35.820730 -115.099777 46 7033ft 125kts
18-Jul-20 09:35 35.843897 -115.068037 49 7034ft 125kts
18-Jul-20 09:36 35.870678 -115.041581 24 7026ft 125kts
18-Jul-20 09:37 35.902030 -115.022858 25 7035ft 124kts
18-Jul-20 09:38 35.933519 -115.004512 25 7023ft 125kts
18-Jul-20 09:39 35.964836 -114.985796 26 7012ft 125kts
18-Jul-20 09:40 35.996357 -114.967384 26 7006ft 125kts
18-Jul-20 09:41 36.027494 -114.948770 25 7006ft 124kts
18-Jul-20 09:42 36.058388 -114.929687 26 7006ft 124kts
18-Jul-20 09:43 36.088865 -114.910039 26 7006ft 123kts
18-Jul-20 09:44 36.119205 -114.890279 26 7003ft 122kts
18-Jul-20 09:45 36.149159 -114.870469 27 6994ft 122kts
18-Jul-20 09:46 36.179144 -114.850493 26 6989ft 122kts
18-Jul-20 09:47 36.209052 -114.830637 26 6981ft 122kts
18-Jul-20 09:48 36.238920 -114.811103 27 6976ft 121kts
18-Jul-20 09:49 36.268625 -114.791631 26 6976ft 120kts
18-Jul-20 09:50 36.298241 -114.772224 25 6979ft 120kts
18-Jul-20 09:51 36.327466 -114.752887 26 6984ft 119kts
18-Jul-20 09:52 36.357011 -114.742677 317 6982ft 114kts
18-Jul-20 09:53 36.347188 -114.775568 235 7028ft 112kts
18-Jul-20 09:54 36.328799 -114.807627 236 7001ft 116kts
18-Jul-20 09:55 36.310305 -114.840476 236 6983ft 116kts
18-Jul-20 09:56 36.291692 -114.872976 236 6973ft 115kts
18-Jul-20 09:57 36.273005 -114.905587 235 6955ft 115kts
18-Jul-20 09:58 36.255251 -114.938210 236 7005ft 111kts
18-Jul-20 09:59 36.237237 -114.970658 236 7023ft 115kts
18-Jul-20 10:00 36.219518 -115.002276 239 7029ft 98kts
18-Jul-20 10:01 36.204796 -115.032124 236 7002ft 110kts
18-Jul-20 10:02 36.189051 -115.065329 239 7028ft 121kts
18-Jul-20 10:03 36.174902 -115.096101 244 6399ft 115kts
18-Jul-20 10:04 36.160964 -115.122972 222 5257ft 98kts
18-Jul-20 10:05 36.143668 -115.133466 213 4437ft 70kts
18-Jul-20 10:06 36.126536 -115.141783 198 3447ft 80kts
18-Jul-20 10:07 36.109713 -115.150721 200 2480ft 66kts
18-Jul-20 10:08 36.095586 -115.158775 206 2097ft 40kts
18-Jul-20 10:09 36.094145 -115.160700 296 2106ft 0kts
18-Jul-20 10:10 36.094145 -115.160700 296 2106ft 0kts
18-Jul-20 10:11 36.095873 -115.161034 26 2103ft 15kts
18-Jul-20 10:12 36.097805 -115.160451 301 2099ft 0kts

Navigation Log

Ident Type
Flight plan parsing failed, navigation log unavailable